createdAt,value
2019-02-06T00:05:14.323Z,32.53
2019-02-06T00:10:28.571Z,27.17
2019-02-06T00:15:43.194Z,24.90
2019-02-06T00:20:58.193Z,31.17
2019-02-06T00:26:13.626Z,27.67
2019-02-06T00:31:28.412Z,33.60
2019-02-06T00:36:42.611Z,27.60
2019-02-06T00:41:57.479Z,26.30
2019-02-06T00:47:12.558Z,24.00
2019-02-06T00:52:28.099Z,27.10
2019-02-06T00:57:43.023Z,28.30
2019-02-06T01:02:57.378Z,24.77
2019-02-06T01:08:12.461Z,24.17
2019-02-06T01:13:26.873Z,26.67
2019-02-06T01:18:41.846Z,28.07
2019-02-06T01:23:56.223Z,24.83
2019-02-06T01:29:10.765Z,24.60
2019-02-06T01:34:25.197Z,21.63
2019-02-06T01:39:39.792Z,23.60
2019-02-06T01:45:01.989Z,25.37
2019-02-06T01:50:18.173Z,19.87
2019-02-06T01:55:32.903Z,23.43
2019-02-06T02:00:47.334Z,20.90
2019-02-06T02:06:02.758Z,20.40
2019-02-06T02:11:17.654Z,21.57
2019-02-06T02:16:32.165Z,23.00
2019-02-06T02:21:47.242Z,19.77
2019-02-06T02:27:01.729Z,21.93
2019-02-06T02:32:16.327Z,22.37
2019-02-06T02:37:30.576Z,21.67
2019-02-06T02:42:44.911Z,16.43
2019-02-06T02:47:59.678Z,22.80
2019-02-06T02:53:14.399Z,22.57
2019-02-06T02:58:28.919Z,26.47
2019-02-06T03:04:02.244Z,25.47
2019-02-06T03:09:16.617Z,23.70
2019-02-06T03:14:30.805Z,23.77
2019-02-06T03:19:45.277Z,25.37
2019-02-06T03:25:00.502Z,24.63
2019-02-06T03:30:15.983Z,25.43
2019-02-06T03:35:30.629Z,23.73
2019-02-06T03:40:45.017Z,32.23
2019-02-06T03:45:59.318Z,26.20
2019-02-06T03:51:13.893Z,23.13
2019-02-06T03:56:28.512Z,30.43
2019-02-06T04:01:42.886Z,27.30
2019-02-06T04:07:00.884Z,25.43
2019-02-06T04:12:13.402Z,34.20
2019-02-06T04:17:27.545Z,27.37
2019-02-06T04:22:42.445Z,32.50
2019-02-06T04:27:56.615Z,26.83
2019-02-06T04:33:10.716Z,28.07
2019-02-06T04:38:25.504Z,29.60
2019-02-06T04:43:40.089Z,25.93
2019-02-06T04:48:54.529Z,28.20
2019-02-06T04:54:09.130Z,29.90
2019-02-06T04:59:24.220Z,33.27
2019-02-06T05:04:38.858Z,32.83
2019-02-06T05:09:53.052Z,31.30
2019-02-06T05:15:08.239Z,34.47
2019-02-06T05:20:30.598Z,32.23
2019-02-06T05:25:44.996Z,25.23
2019-02-06T05:30:59.377Z,31.03
2019-02-06T05:36:14.354Z,26.77
2019-02-06T05:41:28.825Z,32.43
2019-02-06T05:46:43.485Z,24.87
2019-02-06T05:51:58.045Z,28.60
2019-02-06T05:57:12.688Z,28.60
2019-02-06T06:02:26.740Z,24.23
2019-02-06T06:07:45.403Z,25.67
2019-02-06T06:12:57.447Z,27.17
2019-02-06T06:18:12.193Z,26.60
2019-02-06T06:23:26.297Z,25.67
2019-02-06T06:28:40.761Z,20.67
2019-02-06T06:33:55.114Z,26.93
2019-02-06T06:39:09.928Z,24.60
2019-02-06T06:44:25.082Z,24.33
2019-02-06T06:49:39.731Z,30.60
2019-02-06T06:54:54.613Z,25.93
2019-02-06T07:00:13.160Z,25.70
2019-02-06T07:05:27.433Z,26.87
2019-02-06T07:10:43.129Z,29.70
2019-02-06T07:16:00.365Z,33.33
2019-02-06T07:21:15.001Z,32.27
2019-02-06T07:26:29.295Z,30.43
2019-02-06T07:31:43.838Z,30.77
2019-02-06T07:36:58.885Z,31.77
2019-02-06T07:42:13.607Z,23.50
2019-02-06T07:47:28.284Z,31.53
2019-02-06T07:52:43.170Z,29.57
2019-02-06T07:57:58.473Z,30.97
2019-02-06T08:03:13.489Z,28.80
2019-02-06T08:08:35.773Z,31.33
2019-02-06T08:13:43.964Z,28.90
2019-02-06T08:18:58.961Z,27.20
2019-02-06T08:24:13.443Z,33.27
2019-02-06T08:29:31.400Z,31.37
2019-02-06T08:40:08.287Z,27.67
2019-02-06T08:45:22.654Z,37.57
2019-02-06T08:50:37.592Z,30.63
2019-02-06T08:55:51.974Z,25.07
2019-02-06T09:01:06.739Z,34.13
2019-02-06T09:06:21.227Z,35.70
2019-02-06T09:11:36.065Z,27.07
2019-02-06T09:16:50.503Z,31.93
2019-02-06T09:22:04.802Z,28.20
2019-02-06T09:27:19.333Z,33.27
2019-02-06T09:32:35.056Z,29.70
2019-02-06T09:37:49.473Z,30.47
2019-02-06T09:43:03.893Z,28.53
2019-02-06T09:48:18.677Z,31.40
2019-02-06T09:53:33.756Z,32.50
2019-02-06T09:58:48.250Z,33.90
2019-02-06T10:04:03.327Z,28.77
2019-02-06T10:09:22.895Z,29.63
2019-02-06T10:14:34.745Z,32.13
2019-02-06T10:19:49.615Z,27.30
2019-02-06T10:25:04.514Z,29.47
2019-02-06T10:30:23.730Z,31.50
2019-02-06T10:35:38.492Z,30.83
2019-02-06T10:40:53.261Z,28.13
2019-02-06T10:46:08.494Z,36.10
2019-02-06T10:51:23.949Z,26.93
2019-02-06T10:56:38.670Z,30.43
2019-02-06T11:01:53.318Z,32.97
2019-02-06T11:07:08.435Z,31.37
2019-02-06T11:12:24.694Z,29.33
2019-02-06T11:17:38.978Z,33.53
2019-02-06T11:22:53.740Z,28.50
2019-02-06T11:28:08.869Z,28.53
2019-02-06T11:33:23.025Z,27.40
2019-02-06T11:38:37.515Z,29.57
2019-02-06T11:43:51.918Z,29.10
2019-02-06T11:49:07.511Z,28.70
2019-02-06T11:54:21.983Z,27.90
2019-02-06T11:59:36.114Z,30.40
2019-02-06T12:04:50.737Z,30.20
2019-02-06T12:10:10.142Z,30.13
2019-02-06T12:15:25.016Z,34.10
2019-02-06T12:20:39.694Z,30.47
2019-02-06T12:25:54.506Z,28.33
2019-02-06T12:31:08.805Z,34.67
2019-02-06T12:36:23.025Z,28.10
2019-02-06T12:41:37.397Z,32.23
2019-02-06T12:46:51.526Z,38.33
2019-02-06T12:52:06.262Z,30.67
2019-02-06T12:57:20.897Z,24.77
2019-02-06T13:02:35.361Z,26.70
2019-02-06T13:07:50.009Z,26.40
2019-02-06T13:13:05.716Z,23.80
2019-02-06T13:18:20.175Z,27.60
2019-02-06T13:23:34.756Z,30.43
2019-02-06T13:28:49.102Z,22.67
2019-02-06T13:34:05.231Z,17.83
2019-02-06T13:39:19.712Z,27.37
2019-02-06T13:44:34.003Z,25.70
2019-02-06T13:49:48.395Z,25.47
2019-02-06T13:55:02.893Z,22.60
2019-02-06T14:00:20.153Z,20.07
2019-02-06T14:05:34.868Z,19.40
2019-02-06T14:10:59.846Z,21.30
2019-02-06T14:16:07.106Z,24.80
2019-02-06T14:21:21.521Z,21.53
2019-02-06T14:27:07.611Z,21.73
2019-02-06T14:32:56.606Z,25.00
2019-02-06T14:38:54.864Z,17.07
2019-02-06T14:44:53.197Z,19.87
2019-02-06T14:50:43.282Z,22.17
2019-02-06T14:56:19.846Z,21.67
2019-02-06T15:02:20.647Z,25.83
2019-02-06T15:08:09.828Z,21.53
2019-02-06T15:13:47.468Z,25.73
2019-02-06T15:19:27.418Z,25.63
2019-02-06T15:25:17.400Z,25.57
2019-02-06T15:31:07.745Z,29.27
2019-02-06T15:36:57.273Z,25.87
2019-02-06T15:42:43.150Z,27.87
2019-02-06T15:48:52.495Z,28.37
2019-02-06T15:54:50.835Z,25.90
2019-02-06T16:00:47.883Z,26.80
2019-02-06T16:06:50.393Z,30.93
2019-02-06T16:12:31.110Z,30.67
2019-02-06T16:18:07.245Z,30.33
2019-02-06T16:23:58.639Z,37.70
2019-02-06T16:29:36.091Z,28.97
2019-02-06T16:35:08.893Z,32.47
2019-02-06T16:40:56.121Z,32.03
2019-02-06T16:46:47.783Z,28.50
2019-02-06T16:52:31.538Z,29.00
2019-02-06T16:58:26.386Z,32.03
2019-02-06T17:04:32.418Z,30.37
2019-02-06T17:10:19.250Z,28.17
2019-02-06T17:16:01.186Z,33.83
2019-02-06T17:21:37.930Z,30.20
2019-02-06T17:27:17.489Z,28.30
2019-02-06T17:32:58.015Z,25.27
2019-02-06T17:38:59.398Z,24.53
2019-02-06T17:44:54.500Z,23.83
2019-02-06T17:50:43.722Z,30.00
2019-02-06T17:55:58.255Z,29.23
2019-02-06T18:01:39.591Z,22.37
2019-02-06T18:06:55.470Z,23.70
2019-02-06T18:12:10.230Z,18.47
2019-02-06T18:17:25.067Z,18.13
2019-02-06T18:22:40.109Z,17.40
2019-02-06T18:27:54.982Z,22.77
2019-02-06T18:33:09.688Z,19.37
2019-02-06T18:38:24.891Z,19.70
2019-02-06T18:43:39.145Z,17.03
2019-02-06T18:48:53.790Z,19.40
2019-02-06T18:54:09.949Z,14.37
2019-02-06T18:59:24.883Z,15.47
2019-02-06T19:04:39.213Z,16.00
2019-02-06T19:09:53.738Z,13.80
2019-02-06T19:15:09.539Z,19.40
2019-02-06T19:20:24.423Z,14.67
2019-02-06T19:25:38.785Z,14.47
2019-02-06T19:30:55.523Z,16.77
2019-02-06T19:36:09.239Z,16.53
2019-02-06T19:41:24.360Z,16.27
2019-02-06T19:46:39.027Z,16.87
2019-02-06T19:51:54.265Z,17.50
2019-02-06T19:57:08.802Z,15.30
2019-02-06T20:02:23.828Z,13.03
2019-02-06T20:07:38.692Z,16.57
2019-02-06T20:12:53.779Z,14.93
2019-02-06T20:18:08.656Z,14.43
2019-02-06T20:23:23.223Z,13.67
2019-02-06T20:28:37.714Z,15.10
2019-02-06T20:33:53.557Z,15.27
2019-02-06T20:39:11.510Z,14.60
2019-02-06T20:44:26.202Z,15.03
2019-02-06T20:49:40.599Z,13.40
2019-02-06T20:54:55.238Z,11.23
2019-02-06T21:00:13.891Z,12.93
2019-02-06T21:05:28.403Z,14.10
2019-02-06T21:10:42.948Z,15.07
2019-02-06T21:15:58.517Z,13.97
2019-02-06T21:21:13.735Z,13.20
2019-02-06T21:26:28.374Z,15.27
2019-02-06T21:31:43.505Z,17.97
2019-02-06T21:36:57.870Z,11.50
2019-02-06T21:42:12.288Z,13.43
2019-02-06T21:47:27.482Z,12.80
2019-02-06T21:52:41.981Z,17.00
2019-02-06T21:57:57.320Z,15.03
2019-02-06T22:03:16.382Z,15.83
2019-02-06T22:08:31.033Z,16.53
2019-02-06T22:13:55.049Z,13.00
2019-02-06T22:19:02.023Z,12.50
2019-02-06T22:24:16.703Z,14.03
2019-02-06T22:29:30.860Z,14.67
2019-02-06T22:34:45.944Z,17.77
2019-02-06T22:40:00.711Z,14.87
2019-02-06T22:45:20.411Z,16.07
2019-02-06T22:50:36.249Z,14.60
2019-02-06T22:55:50.850Z,15.83
2019-02-06T23:01:29.670Z,20.50
2019-02-06T23:06:44.626Z,18.53
2019-02-06T23:11:58.970Z,19.67
2019-02-06T23:17:13.599Z,18.70
2019-02-06T23:22:27.983Z,17.63
2019-02-06T23:27:42.446Z,15.07
2019-02-06T23:32:57.275Z,19.60
2019-02-06T23:38:12.186Z,23.03
